createdAt,value
2022-12-04T00:00:02.253Z,4.85
2022-12-04T00:01:02.271Z,4.92
2022-12-04T00:02:02.266Z,4.94
2022-12-04T00:04:02.242Z,4.85
2022-12-04T00:05:02.321Z,4.64
2022-12-04T00:06:02.269Z,4.59
2022-12-04T00:07:02.280Z,4.63
2022-12-04T00:08:02.330Z,4.67
2022-12-04T00:09:02.271Z,4.76
2022-12-04T00:10:02.305Z,4.82
2022-12-04T00:11:05.722Z,4.86
2022-12-04T00:12:02.256Z,4.92
2022-12-04T00:13:02.239Z,4.95
2022-12-04T00:14:06.986Z,4.97
2022-12-04T00:15:26.013Z,4.81
2022-12-04T00:16:02.401Z,4.79
2022-12-04T00:17:02.248Z,4.81
2022-12-04T00:18:02.337Z,4.83
2022-12-04T00:19:02.257Z,4.74
2022-12-04T00:20:02.409Z,4.68
2022-12-04T00:21:02.332Z,4.62
2022-12-04T00:22:02.307Z,4.63
2022-12-04T00:23:02.352Z,4.65
2022-12-04T00:24:02.296Z,4.66
2022-12-04T00:25:02.307Z,4.65
2022-12-04T00:26:02.291Z,4.69
2022-12-04T00:27:02.330Z,4.66
2022-12-04T00:30:02.319Z,4.68
2022-12-04T00:31:02.280Z,4.72
2022-12-04T00:32:02.406Z,4.74
2022-12-04T00:33:02.337Z,4.71
2022-12-04T00:34:02.480Z,4.69
2022-12-04T00:35:02.308Z,4.68
2022-12-04T00:36:02.363Z,4.60
2022-12-04T00:37:02.302Z,4.56
2022-12-04T00:38:02.357Z,4.45
2022-12-04T00:39:02.325Z,4.37
2022-12-04T00:40:02.306Z,4.40
2022-12-04T00:41:02.340Z,4.46
2022-12-04T00:42:02.315Z,4.54
2022-12-04T00:43:02.339Z,4.58
2022-12-04T00:45:02.374Z,4.56
2022-12-04T00:46:02.484Z,4.54
2022-12-04T00:47:02.324Z,4.47
2022-12-04T00:48:05.964Z,4.39
2022-12-04T00:49:02.347Z,4.33
2022-12-04T00:50:02.339Z,4.35
2022-12-04T00:51:02.417Z,4.38
2022-12-04T00:52:02.329Z,4.39
2022-12-04T00:54:02.390Z,4.37
2022-12-04T00:55:02.336Z,4.36
2022-12-04T00:56:02.394Z,4.34
2022-12-04T00:57:02.349Z,4.37
2022-12-04T00:58:02.387Z,4.44
2022-12-04T00:59:02.368Z,4.52
2022-12-04T01:00:02.403Z,4.61
2022-12-04T01:01:02.542Z,4.67
2022-12-04T01:02:02.402Z,4.64
2022-12-04T01:03:02.524Z,4.63
2022-12-04T01:04:02.394Z,4.59
2022-12-04T01:05:02.393Z,4.58
2022-12-04T01:06:02.495Z,4.57
2022-12-04T01:07:05.212Z,4.60
2022-12-04T01:08:02.505Z,4.66
2022-12-04T01:09:02.402Z,4.58
2022-12-04T01:10:02.438Z,4.59
2022-12-04T01:11:02.453Z,4.62
2022-12-04T01:12:02.424Z,4.68
2022-12-04T01:13:02.470Z,4.74
2022-12-04T01:14:02.441Z,4.77
2022-12-04T01:15:02.435Z,4.80
2022-12-04T01:18:02.450Z,4.81
2022-12-04T01:19:02.412Z,4.79
2022-12-04T01:20:02.404Z,4.78
2022-12-04T01:21:02.450Z,4.80
2022-12-04T01:22:02.443Z,4.83
2022-12-04T01:23:02.420Z,4.88
2022-12-04T01:24:02.431Z,4.91
2022-12-04T01:25:06.243Z,4.88
2022-12-04T01:26:02.493Z,4.86
2022-12-04T01:28:02.471Z,4.89
2022-12-04T01:31:02.473Z,4.88
2022-12-04T01:33:02.461Z,4.87
2022-12-04T01:34:02.461Z,4.84
2022-12-04T01:35:02.470Z,4.82
2022-12-04T01:36:02.484Z,4.81
2022-12-04T01:37:02.456Z,4.85
2022-12-04T01:38:02.467Z,4.80
2022-12-04T01:39:02.526Z,4.76
2022-12-04T01:40:02.511Z,4.75
2022-12-04T01:41:02.502Z,4.78
2022-12-04T01:42:02.473Z,4.82
2022-12-04T01:43:02.451Z,4.85
2022-12-04T01:44:02.534Z,4.87
2022-12-04T01:45:02.457Z,4.88
2022-12-04T01:46:02.601Z,4.93
2022-12-04T01:47:02.508Z,4.94
2022-12-04T01:48:02.516Z,4.93
2022-12-04T01:49:02.539Z,4.86
2022-12-04T01:50:02.511Z,4.81
2022-12-04T01:51:02.556Z,4.71
2022-12-04T01:52:02.512Z,4.62
2022-12-04T01:53:02.557Z,4.61
2022-12-04T01:54:02.556Z,4.64
2022-12-04T01:55:02.530Z,4.68
2022-12-04T01:56:02.534Z,4.71
2022-12-04T01:57:02.552Z,4.67
2022-12-04T01:58:02.498Z,4.65
2022-12-04T01:59:02.546Z,4.61
2022-12-04T02:00:02.540Z,4.54
2022-12-04T02:01:07.931Z,4.55
2022-12-04T02:02:06.625Z,4.57
2022-12-04T02:03:02.626Z,4.62
2022-12-04T02:04:02.585Z,4.68
2022-12-04T02:05:02.543Z,4.73
2022-12-04T02:06:02.554Z,4.70
2022-12-04T02:07:02.557Z,4.72
2022-12-04T02:08:02.693Z,4.71
2022-12-04T02:09:02.589Z,4.54
2022-12-04T02:10:02.549Z,4.38
2022-12-04T02:11:02.537Z,4.29
2022-12-04T02:12:02.577Z,4.30
2022-12-04T02:13:02.531Z,4.36
2022-12-04T02:14:02.601Z,4.44
2022-12-04T02:15:02.577Z,4.49
2022-12-04T02:16:02.592Z,4.52
2022-12-04T02:18:02.557Z,4.57
2022-12-04T02:21:02.540Z,4.59
2022-12-04T02:22:02.629Z,4.61
2022-12-04T02:23:02.592Z,4.66
2022-12-04T02:24:02.629Z,4.73
2022-12-04T02:25:02.543Z,4.75
2022-12-04T02:27:02.635Z,4.72
2022-12-04T02:28:02.615Z,4.67
2022-12-04T02:29:02.617Z,4.63
2022-12-04T02:30:02.609Z,4.66
2022-12-04T02:31:02.614Z,4.68
2022-12-04T02:32:02.606Z,4.55
2022-12-04T02:33:02.636Z,4.49
2022-12-04T02:34:02.589Z,4.33
2022-12-04T02:35:02.579Z,4.32
2022-12-04T02:36:02.596Z,4.35
2022-12-04T02:37:02.673Z,4.32
2022-12-04T02:38:02.633Z,4.31
2022-12-04T02:39:06.747Z,4.34
2022-12-04T02:40:02.634Z,4.36
2022-12-04T02:41:02.617Z,4.38
2022-12-04T02:42:02.676Z,4.41
2022-12-04T02:43:02.643Z,4.40
2022-12-04T02:44:02.689Z,4.15
2022-12-04T02:45:02.607Z,4.09
2022-12-04T02:46:02.665Z,4.08
2022-12-04T02:47:02.692Z,4.11
2022-12-04T02:48:02.656Z,4.16
2022-12-04T02:49:02.651Z,4.19
2022-12-04T02:50:02.664Z,4.16
2022-12-04T02:51:02.627Z,4.14
2022-12-04T02:52:02.660Z,4.12
2022-12-04T02:53:02.663Z,4.09
2022-12-04T02:55:07.996Z,4.12
2022-12-04T02:56:02.634Z,4.19
2022-12-04T02:57:02.709Z,4.21
2022-12-04T02:58:02.644Z,4.23
2022-12-04T02:59:02.689Z,4.20
2022-12-04T03:00:02.691Z,4.21
2022-12-04T03:01:02.783Z,4.23
2022-12-04T03:02:02.688Z,4.27
2022-12-04T03:03:02.712Z,4.23
2022-12-04T03:04:02.681Z,4.18
2022-12-04T03:05:02.660Z,4.16
2022-12-04T03:07:02.723Z,4.18
2022-12-04T03:09:02.730Z,4.15
2022-12-04T03:10:02.664Z,4.01
2022-12-04T03:11:02.708Z,3.88
2022-12-04T03:12:02.750Z,3.89
2022-12-04T03:13:02.709Z,3.95
2022-12-04T03:14:02.717Z,4.01
2022-12-04T03:15:02.694Z,4.07
2022-12-04T03:16:06.977Z,4.11
2022-12-04T03:17:02.787Z,4.15
2022-12-04T03:18:02.734Z,4.10
2022-12-04T03:19:02.730Z,4.13
2022-12-04T03:20:02.762Z,4.09
2022-12-04T03:21:02.728Z,3.96
2022-12-04T03:22:02.764Z,3.91
2022-12-04T03:25:02.792Z,3.98
2022-12-04T03:26:02.729Z,4.05
2022-12-04T03:27:02.699Z,4.12
2022-12-04T03:28:02.753Z,4.17
2022-12-04T03:29:02.753Z,4.22
2022-12-04T03:30:02.780Z,4.25
2022-12-04T03:32:02.771Z,4.28
2022-12-04T03:33:02.762Z,4.33
2022-12-04T03:34:02.801Z,4.39
2022-12-04T03:35:02.784Z,4.44
2022-12-04T03:36:02.733Z,4.45
2022-12-04T03:37:02.742Z,4.47
2022-12-04T03:38:02.809Z,4.42
2022-12-04T03:39:02.728Z,4.39
2022-12-04T03:40:02.810Z,4.38
2022-12-04T03:43:02.847Z,4.37
2022-12-04T03:44:02.745Z,4.38
2022-12-04T03:45:02.762Z,4.40
2022-12-04T03:46:02.869Z,4.41
2022-12-04T03:47:02.788Z,4.40
2022-12-04T03:48:02.795Z,4.44
2022-12-04T03:49:02.753Z,4.47
2022-12-04T03:50:02.792Z,4.51
2022-12-04T03:51:02.795Z,4.53
2022-12-04T03:53:07.226Z,4.51
2022-12-04T03:54:02.829Z,4.48
2022-12-04T03:55:02.810Z,4.45
2022-12-04T03:56:02.847Z,4.40
2022-12-04T03:59:02.818Z,4.41
2022-12-04T04:00:03.303Z,4.44
2022-12-04T04:01:02.921Z,4.48
2022-12-04T04:02:02.884Z,4.52
2022-12-04T04:03:02.855Z,4.55
2022-12-04T04:04:02.821Z,4.56
2022-12-04T04:05:02.846Z,4.54
2022-12-04T04:06:02.835Z,4.49
2022-12-04T04:07:02.799Z,4.45
2022-12-04T04:08:02.918Z,4.35
2022-12-04T04:09:02.847Z,4.30
2022-12-04T04:11:02.850Z,4.32
2022-12-04T04:12:02.818Z,4.36
2022-12-04T04:14:02.833Z,4.35
2022-12-04T04:15:02.852Z,4.34
2022-12-04T04:16:02.911Z,4.33
2022-12-04T04:17:02.833Z,4.30
2022-12-04T04:18:02.933Z,4.32
2022-12-04T04:19:02.860Z,4.31
2022-12-04T04:20:02.850Z,4.24
2022-12-04T04:21:02.878Z,4.04
2022-12-04T04:22:02.845Z,4.01
2022-12-04T04:23:02.901Z,3.97
2022-12-04T04:24:02.922Z,4.00
2022-12-04T04:25:02.855Z,4.05
2022-12-04T04:26:02.888Z,4.14
2022-12-04T04:27:02.909Z,4.21
2022-12-04T04:28:02.900Z,4.29
2022-12-04T04:29:02.937Z,4.37
2022-12-04T04:30:07.524Z,4.38
2022-12-04T04:31:03.002Z,4.42
2022-12-04T04:33:02.881Z,4.32
2022-12-04T04:34:02.896Z,4.15
2022-12-04T04:35:02.921Z,4.11
2022-12-04T04:36:02.884Z,4.14
2022-12-04T04:37:02.911Z,4.21
2022-12-04T04:38:02.935Z,4.28
2022-12-04T04:39:02.943Z,4.34
2022-12-04T04:40:02.915Z,4.38
2022-12-04T04:41:02.919Z,4.30
2022-12-04T04:42:02.951Z,4.20
2022-12-04T04:43:02.931Z,4.22
2022-12-04T04:44:02.944Z,4.25
2022-12-04T04:45:02.938Z,4.28
2022-12-04T04:47:02.966Z,4.27
2022-12-04T04:48:02.887Z,4.24
2022-12-04T04:49:02.948Z,4.25
2022-12-04T04:50:02.967Z,4.26
2022-12-04T04:52:02.983Z,4.25
2022-12-04T04:53:02.967Z,4.24
2022-12-04T04:54:02.970Z,4.22
2022-12-04T04:55:03.018Z,4.21
2022-12-04T04:56:02.946Z,4.24
2022-12-04T04:57:02.965Z,4.30
2022-12-04T04:58:02.958Z,4.34
2022-12-04T04:59:02.937Z,4.38
2022-12-04T05:00:03.003Z,4.41
2022-12-04T05:01:02.984Z,4.45
2022-12-04T05:02:03.080Z,4.47
2022-12-04T05:03:03.033Z,4.49
2022-12-04T05:04:02.947Z,4.41
2022-12-04T05:05:03.021Z,4.27
2022-12-04T05:06:02.989Z,4.23
2022-12-04T05:07:07.760Z,4.09
2022-12-04T05:08:03.090Z,3.93
2022-12-04T05:09:02.990Z,3.87
2022-12-04T05:10:03.025Z,3.92
2022-12-04T05:11:02.947Z,3.95
2022-12-04T05:12:02.956Z,3.99
2022-12-04T05:13:03.020Z,4.06
2022-12-04T05:14:02.947Z,4.16
2022-12-04T05:15:03.001Z,4.27
2022-12-04T05:16:03.079Z,4.37
2022-12-04T05:17:05.498Z,4.41
2022-12-04T05:18:03.062Z,4.46
2022-12-04T05:19:03.025Z,4.49
2022-12-04T05:20:03.018Z,4.53
2022-12-04T05:21:03.015Z,4.56
2022-12-04T05:23:03.021Z,4.55
2022-12-04T05:24:03.001Z,4.37
2022-12-04T05:25:03.022Z,4.23
2022-12-04T05:26:03.031Z,4.10
2022-12-04T05:27:02.997Z,4.03
2022-12-04T05:28:03.084Z,4.06
2022-12-04T05:29:03.048Z,4.11
2022-12-04T05:30:03.060Z,4.17
2022-12-04T05:31:03.107Z,4.21
2022-12-04T05:32:03.059Z,4.25
2022-12-04T05:33:03.069Z,4.24
2022-12-04T05:34:03.032Z,4.26
2022-12-04T05:35:07.645Z,4.30
2022-12-04T05:36:03.085Z,4.32
2022-12-04T05:37:03.010Z,4.35
2022-12-04T05:38:03.055Z,4.40
2022-12-04T05:39:03.064Z,4.38
2022-12-04T05:40:03.041Z,4.35
2022-12-04T05:41:03.142Z,4.30
2022-12-04T05:43:03.060Z,4.23
2022-12-04T05:46:03.124Z,4.24
2022-12-04T05:48:03.075Z,4.22
2022-12-04T05:49:03.087Z,4.18
2022-12-04T05:50:03.041Z,4.13
2022-12-04T05:51:03.128Z,3.95
2022-12-04T05:52:03.081Z,3.75
2022-12-04T05:53:03.080Z,3.57
2022-12-04T05:54:03.104Z,3.51
2022-12-04T05:55:03.059Z,3.58
2022-12-04T05:56:03.159Z,3.65
2022-12-04T05:57:03.107Z,3.74
2022-12-04T05:58:03.106Z,3.82
2022-12-04T05:59:03.137Z,3.94
2022-12-04T06:00:03.101Z,4.04
2022-12-04T06:01:03.069Z,4.08
2022-12-04T06:02:03.191Z,4.03
2022-12-04T06:03:03.128Z,4.04
2022-12-04T06:04:03.117Z,4.08
2022-12-04T06:05:03.119Z,4.09
2022-12-04T06:06:03.153Z,3.95
2022-12-04T06:07:03.115Z,3.89
2022-12-04T06:08:03.185Z,3.88
2022-12-04T06:09:03.129Z,3.91
2022-12-04T06:10:03.129Z,3.95
2022-12-04T06:11:03.080Z,4.03
2022-12-04T06:12:03.100Z,4.10
2022-12-04T06:13:03.103Z,4.15
2022-12-04T06:14:03.157Z,4.18
2022-12-04T06:15:03.118Z,4.19
2022-12-04T06:16:03.169Z,4.22
2022-12-04T06:17:03.162Z,4.23
2022-12-04T06:18:03.293Z,4.20
2022-12-04T06:19:03.154Z,4.16
2022-12-04T06:20:07.967Z,4.05
2022-12-04T06:21:08.188Z,4.04
2022-12-04T06:22:03.197Z,4.07
2022-12-04T06:23:03.154Z,4.13
2022-12-04T06:25:03.191Z,4.12
2022-12-04T06:26:06.973Z,4.17
2022-12-04T06:29:03.170Z,4.16
2022-12-04T06:30:03.185Z,4.09
2022-12-04T06:31:03.181Z,3.92
2022-12-04T06:32:03.262Z,3.87
2022-12-04T06:33:03.181Z,3.82
2022-12-04T06:34:03.198Z,3.76
2022-12-04T06:35:03.202Z,3.77
2022-12-04T06:36:03.208Z,3.66
2022-12-04T06:37:03.227Z,3.61
2022-12-04T06:38:03.221Z,3.57
2022-12-04T06:39:03.234Z,3.63
2022-12-04T06:40:03.167Z,3.68
2022-12-04T06:41:03.205Z,3.69
2022-12-04T06:42:03.214Z,3.71
2022-12-04T06:43:03.206Z,3.76
2022-12-04T06:44:03.254Z,3.75
2022-12-04T06:45:03.200Z,3.70
2022-12-04T06:46:03.258Z,3.74
2022-12-04T06:47:03.220Z,3.81
2022-12-04T06:48:03.194Z,3.82
2022-12-04T06:49:03.285Z,3.87
2022-12-04T06:50:03.201Z,3.98
2022-12-04T06:51:03.180Z,4.08
2022-12-04T06:52:03.274Z,4.05
2022-12-04T06:53:08.116Z,3.94
2022-12-04T06:54:03.555Z,3.98
2022-12-04T06:55:03.486Z,3.93
2022-12-04T06:56:03.205Z,3.82
2022-12-04T06:57:03.301Z,3.56
2022-12-04T06:58:08.266Z,3.52
2022-12-04T06:59:03.215Z,3.54
2022-12-04T07:00:03.240Z,3.64
2022-12-04T07:01:03.347Z,3.76
2022-12-04T07:02:03.373Z,3.85
2022-12-04T07:03:03.260Z,3.68
2022-12-04T07:04:03.295Z,3.60
2022-12-04T07:05:03.271Z,3.47
2022-12-04T07:06:03.259Z,3.46
2022-12-04T07:07:03.299Z,3.49
2022-12-04T07:08:03.334Z,3.52
2022-12-04T07:09:03.272Z,3.53
2022-12-04T07:10:03.278Z,3.61
2022-12-04T07:11:03.253Z,3.71
2022-12-04T07:12:03.296Z,3.84
2022-12-04T07:13:03.245Z,3.96
2022-12-04T07:14:03.273Z,4.08
2022-12-04T07:15:03.319Z,4.19
2022-12-04T07:16:03.338Z,4.29
2022-12-04T07:17:03.436Z,4.33
2022-12-04T07:18:03.265Z,4.38
2022-12-04T07:19:03.319Z,4.44
2022-12-04T07:20:03.309Z,4.49
2022-12-04T07:21:03.300Z,4.52
2022-12-04T07:22:03.345Z,4.55
2022-12-04T07:23:07.238Z,4.59
2022-12-04T07:24:03.313Z,4.51
2022-12-04T07:25:03.348Z,4.48
2022-12-04T07:27:03.358Z,4.51
2022-12-04T07:28:03.327Z,4.55
2022-12-04T07:29:03.293Z,4.54
2022-12-04T07:30:03.348Z,4.53
2022-12-04T07:31:03.273Z,4.52
2022-12-04T07:32:03.899Z,4.50
2022-12-04T07:33:03.338Z,4.52
2022-12-04T07:34:03.353Z,4.54
2022-12-04T07:35:03.363Z,4.56
2022-12-04T07:36:03.321Z,4.59
2022-12-04T07:37:03.378Z,4.63
2022-12-04T07:38:03.364Z,4.65
2022-12-04T07:40:03.407Z,4.67
2022-12-04T07:41:03.362Z,4.68
2022-12-04T07:42:03.351Z,4.69
2022-12-04T07:44:03.317Z,4.73
2022-12-04T07:46:03.519Z,4.71
2022-12-04T07:47:03.411Z,4.73
2022-12-04T07:49:03.357Z,4.72
2022-12-04T07:50:03.405Z,4.66
2022-12-04T07:51:03.388Z,4.58
2022-12-04T07:52:03.407Z,4.51
2022-12-04T07:53:03.396Z,4.46
2022-12-04T07:54:04.487Z,4.41
2022-12-04T07:55:03.425Z,4.44
2022-12-04T07:56:03.346Z,4.46
2022-12-04T07:57:03.402Z,4.52
2022-12-04T07:58:03.440Z,4.60
2022-12-04T07:59:03.410Z,4.67
2022-12-04T08:00:03.449Z,4.74
2022-12-04T08:01:03.379Z,4.80
2022-12-04T08:02:03.401Z,4.85
2022-12-04T08:03:03.434Z,4.88
2022-12-04T08:04:03.600Z,4.89
2022-12-04T08:05:03.588Z,4.88
2022-12-04T08:07:03.436Z,4.90
2022-12-04T08:08:03.487Z,4.91
2022-12-04T08:09:09.469Z,4.96
2022-12-04T08:10:03.474Z,4.97
2022-12-04T08:11:03.383Z,4.96
2022-12-04T08:14:03.425Z,4.97
2022-12-04T08:15:03.432Z,4.99
2022-12-04T08:16:03.454Z,5.03
2022-12-04T08:17:03.524Z,5.07
2022-12-04T08:18:03.438Z,5.11
2022-12-04T08:19:03.466Z,5.13
2022-12-04T08:20:03.502Z,5.17
2022-12-04T08:21:03.455Z,5.19
2022-12-04T08:22:03.426Z,5.21
2022-12-04T08:23:03.493Z,5.20
2022-12-04T08:24:03.457Z,5.18
2022-12-04T08:26:03.479Z,5.12
2022-12-04T08:27:03.481Z,5.10
2022-12-04T08:28:03.517Z,5.06
2022-12-04T08:29:03.468Z,5.03
2022-12-04T08:31:03.585Z,4.99
2022-12-04T08:32:03.511Z,4.98
2022-12-04T08:33:03.517Z,5.01
2022-12-04T08:34:03.481Z,5.02
2022-12-04T08:35:03.489Z,5.05
2022-12-04T08:36:03.518Z,5.08
2022-12-04T08:37:03.447Z,5.06
2022-12-04T08:39:03.516Z,5.05
2022-12-04T08:40:03.513Z,5.06
2022-12-04T08:41:03.529Z,5.03
2022-12-04T08:42:03.472Z,5.00
2022-12-04T08:44:03.557Z,5.02
2022-12-04T08:45:03.490Z,5.03
2022-12-04T08:46:04.430Z,5.05
2022-12-04T08:48:03.521Z,5.04
2022-12-04T08:50:03.505Z,5.03
2022-12-04T08:51:03.584Z,5.02
2022-12-04T08:52:03.544Z,5.04
2022-12-04T08:53:03.507Z,5.06
2022-12-04T08:54:03.536Z,5.10
2022-12-04T08:55:03.492Z,5.13
2022-12-04T08:56:03.564Z,5.16
2022-12-04T08:58:03.508Z,5.18
2022-12-04T08:59:03.545Z,5.17
2022-12-04T09:00:03.548Z,5.18
2022-12-04T09:01:03.615Z,5.17
2022-12-04T09:02:03.649Z,5.16
2022-12-04T09:03:03.515Z,5.17
2022-12-04T09:04:03.684Z,5.14
2022-12-04T09:05:03.563Z,5.12
2022-12-04T09:06:03.564Z,5.13
2022-12-04T09:08:03.685Z,5.15
2022-12-04T09:09:03.555Z,5.17
2022-12-04T09:11:03.583Z,5.19
2022-12-04T09:12:03.621Z,5.21
2022-12-04T09:13:03.541Z,5.23
2022-12-04T09:14:03.579Z,5.25
2022-12-04T09:15:03.598Z,5.28
2022-12-04T09:17:03.617Z,5.25
2022-12-04T09:18:03.557Z,5.26
2022-12-04T09:19:03.590Z,5.27
2022-12-04T09:20:03.864Z,5.28
2022-12-04T09:21:03.592Z,5.29
2022-12-04T09:23:05.275Z,5.28
2022-12-04T09:24:03.614Z,5.27
2022-12-04T09:25:03.701Z,5.28
2022-12-04T09:26:03.567Z,5.29
2022-12-04T09:27:03.613Z,5.30
2022-12-04T09:28:03.606Z,5.31
2022-12-04T09:30:03.607Z,5.33
2022-12-04T09:31:03.743Z,5.34
2022-12-04T09:32:03.650Z,5.35
2022-12-04T09:35:03.621Z,5.38
2022-12-04T09:36:03.598Z,5.40
2022-12-04T09:37:03.688Z,5.43
2022-12-04T09:38:03.622Z,5.42
2022-12-04T09:39:03.631Z,5.43
2022-12-04T09:40:03.667Z,5.44
2022-12-04T09:41:03.625Z,5.45
2022-12-04T09:42:03.598Z,5.44
2022-12-04T09:43:03.706Z,5.45
2022-12-04T09:46:03.721Z,5.44
2022-12-04T09:47:03.860Z,5.46
2022-12-04T09:48:03.685Z,5.48
2022-12-04T09:49:03.675Z,5.50
2022-12-04T09:50:03.697Z,5.51
2022-12-04T09:52:03.620Z,5.49
2022-12-04T09:53:03.704Z,5.50
2022-12-04T09:54:03.692Z,5.52
2022-12-04T09:57:03.685Z,5.51
2022-12-04T09:58:03.708Z,5.49
2022-12-04T09:59:03.653Z,5.48
2022-12-04T10:00:04.864Z,5.46
2022-12-04T10:01:03.747Z,5.44
2022-12-04T10:02:03.777Z,5.46
2022-12-04T10:04:06.276Z,5.47
2022-12-04T10:05:03.660Z,5.51
2022-12-04T10:06:03.767Z,5.52
2022-12-04T10:07:03.663Z,5.54
2022-12-04T10:08:03.799Z,5.52
2022-12-04T10:09:03.699Z,5.53
2022-12-04T10:10:03.690Z,5.54
2022-12-04T10:11:03.708Z,5.55
2022-12-04T10:15:03.745Z,5.54
2022-12-04T10:16:03.816Z,5.56
2022-12-04T10:17:03.729Z,5.57
2022-12-04T10:18:03.728Z,5.58
2022-12-04T10:19:03.738Z,5.59
2022-12-04T10:20:03.691Z,5.62
2022-12-04T10:21:03.776Z,5.66
2022-12-04T10:22:03.691Z,5.70
2022-12-04T10:25:03.733Z,5.71
2022-12-04T10:27:03.752Z,5.73
2022-12-04T10:28:03.721Z,5.75
2022-12-04T10:29:03.764Z,5.76
2022-12-04T10:30:03.717Z,5.77
2022-12-04T10:31:03.855Z,5.78
2022-12-04T10:32:03.736Z,5.82
2022-12-04T10:33:03.763Z,5.85
2022-12-04T10:34:03.792Z,5.88
2022-12-04T10:36:03.747Z,5.87
2022-12-04T10:37:04.927Z,5.84
2022-12-04T10:38:03.729Z,5.86
2022-12-04T10:39:03.824Z,5.84
2022-12-04T10:40:03.784Z,5.85
2022-12-04T10:41:03.794Z,5.86
2022-12-04T10:42:03.821Z,5.88
2022-12-04T10:43:03.818Z,5.89
2022-12-04T10:45:03.791Z,5.90
2022-12-04T10:46:03.809Z,5.89
2022-12-04T10:47:03.979Z,5.87
2022-12-04T10:48:03.808Z,5.83
2022-12-04T10:49:03.826Z,5.80
2022-12-04T10:50:03.806Z,5.78
2022-12-04T10:51:03.768Z,5.79
2022-12-04T10:54:03.880Z,5.80
2022-12-04T10:55:03.787Z,5.81
2022-12-04T10:56:03.797Z,5.83
2022-12-04T10:57:03.814Z,5.82
2022-12-04T10:58:03.805Z,5.83
2022-12-04T11:00:04.083Z,5.84
2022-12-04T11:01:03.807Z,5.82
2022-12-04T11:03:03.860Z,5.85
2022-12-04T11:06:03.870Z,5.86
2022-12-04T11:07:03.841Z,5.87
2022-12-04T11:08:03.901Z,5.88
2022-12-04T11:10:03.851Z,5.87
2022-12-04T11:11:03.832Z,5.77
2022-12-04T11:12:03.857Z,5.74
2022-12-04T11:13:03.871Z,5.72
2022-12-04T11:14:05.145Z,5.73
2022-12-04T11:15:03.863Z,5.71
2022-12-04T11:16:03.956Z,5.69
2022-12-04T11:17:03.929Z,5.70
2022-12-04T11:21:03.896Z,5.72
2022-12-04T11:22:03.911Z,5.75
2022-12-04T11:23:03.859Z,5.64
2022-12-04T11:24:03.920Z,5.57
2022-12-04T11:25:03.892Z,5.53
2022-12-04T11:26:05.834Z,5.50
2022-12-04T11:27:03.921Z,5.47
2022-12-04T11:28:03.874Z,5.50
2022-12-04T11:29:03.872Z,5.53
2022-12-04T11:30:03.863Z,5.56
2022-12-04T11:31:03.944Z,5.62
2022-12-04T11:33:03.878Z,5.60
2022-12-04T11:34:03.984Z,5.56
2022-12-04T11:35:03.911Z,5.50
2022-12-04T11:36:03.921Z,5.52
2022-12-04T11:37:03.964Z,5.53
2022-12-04T11:38:03.932Z,5.47
2022-12-04T11:39:03.930Z,5.40
2022-12-04T11:40:03.937Z,5.33
2022-12-04T11:41:03.905Z,5.30
2022-12-04T11:42:03.925Z,5.23
2022-12-04T11:43:03.898Z,5.22
2022-12-04T11:44:03.935Z,5.24
2022-12-04T11:45:03.961Z,5.26
2022-12-04T11:46:03.957Z,5.34
2022-12-04T11:47:04.015Z,5.40
2022-12-04T11:48:03.962Z,5.44
2022-12-04T11:49:03.943Z,5.51
2022-12-04T11:50:04.032Z,5.56
2022-12-04T11:51:05.407Z,5.62
2022-12-04T11:52:04.024Z,5.67
2022-12-04T11:53:03.933Z,5.71
2022-12-04T11:54:03.931Z,5.74
2022-12-04T11:55:03.980Z,5.75
2022-12-04T11:56:04.011Z,5.79
2022-12-04T11:57:03.961Z,5.83
2022-12-04T11:58:03.974Z,5.85
2022-12-04T11:59:03.962Z,5.86
2022-12-04T12:00:04.023Z,5.87
2022-12-04T12:02:04.115Z,5.90
2022-12-04T12:03:04.160Z,5.93
2022-12-04T12:04:03.983Z,5.97
2022-12-04T12:05:04.021Z,6.00
2022-12-04T12:06:03.988Z,6.02
2022-12-04T12:07:04.032Z,6.05
2022-12-04T12:08:04.008Z,6.06
2022-12-04T12:09:04.028Z,6.09
2022-12-04T12:10:04.019Z,6.11
2022-12-04T12:12:04.035Z,6.10
2022-12-04T12:17:04.051Z,6.11
2022-12-04T12:18:04.001Z,6.12
2022-12-04T12:19:03.981Z,6.13
2022-12-04T12:21:03.993Z,6.14
2022-12-04T12:22:05.579Z,6.17
2022-12-04T12:23:04.041Z,6.20
2022-12-04T12:24:04.024Z,6.21
2022-12-04T12:26:04.043Z,6.22
2022-12-04T12:27:03.996Z,6.23
2022-12-04T12:28:05.709Z,6.25
2022-12-04T12:29:04.014Z,6.24
2022-12-04T12:30:04.090Z,6.27
2022-12-04T12:31:05.936Z,6.29
2022-12-04T12:32:04.171Z,6.28
2022-12-04T12:33:04.044Z,6.26
2022-12-04T12:34:04.113Z,6.25
2022-12-04T12:35:04.070Z,6.24
2022-12-04T12:36:04.032Z,6.21
2022-12-04T12:38:04.112Z,6.22
2022-12-04T12:39:04.037Z,6.24
2022-12-04T12:40:04.119Z,6.26
2022-12-04T12:41:04.088Z,6.30
2022-12-04T12:42:04.084Z,6.34
2022-12-04T12:43:04.170Z,6.37
2022-12-04T12:44:04.087Z,6.38
2022-12-04T12:45:04.934Z,6.40
2022-12-04T12:46:04.203Z,6.44
2022-12-04T12:47:04.068Z,6.47
2022-12-04T12:48:04.092Z,6.49
2022-12-04T12:49:04.091Z,6.51
2022-12-04T12:50:04.105Z,6.53
2022-12-04T12:51:28.486Z,6.55
2022-12-04T12:52:04.073Z,6.56
2022-12-04T12:53:04.095Z,6.58
2022-12-04T12:54:04.072Z,6.59
2022-12-04T12:55:04.147Z,6.57
2022-12-04T12:56:04.118Z,6.55
2022-12-04T12:57:04.151Z,6.54
2022-12-04T12:58:04.120Z,6.52
2022-12-04T12:59:04.116Z,6.50
2022-12-04T13:01:04.186Z,6.51
2022-12-04T13:02:04.174Z,6.53
2022-12-04T13:04:04.173Z,6.55
2022-12-04T13:05:05.947Z,6.58
2022-12-04T13:06:04.108Z,6.57
2022-12-04T13:08:04.297Z,6.61
2022-12-04T13:09:04.097Z,6.60
2022-12-04T13:10:04.204Z,6.61
2022-12-04T13:11:04.105Z,6.60
2022-12-04T13:14:04.147Z,6.58
2022-12-04T13:15:04.154Z,6.55
2022-12-04T13:16:04.164Z,6.53
2022-12-04T13:17:04.245Z,6.52
2022-12-04T13:18:04.163Z,6.55
2022-12-04T13:19:04.166Z,6.60
2022-12-04T13:20:09.579Z,6.62
2022-12-04T13:21:04.117Z,6.64
2022-12-04T13:22:04.196Z,6.61
2022-12-04T13:24:04.142Z,6.59
2022-12-04T13:25:04.155Z,6.56
2022-12-04T13:27:04.194Z,6.53
2022-12-04T13:29:04.202Z,6.52
2022-12-04T13:30:04.192Z,6.49
2022-12-04T13:31:04.239Z,6.48
2022-12-04T13:32:04.264Z,6.45
2022-12-04T13:33:04.174Z,6.38
2022-12-04T13:34:04.176Z,6.32
2022-12-04T13:35:04.187Z,6.26
2022-12-04T13:36:04.201Z,6.17
2022-12-04T13:37:04.164Z,6.14
2022-12-04T13:39:04.274Z,6.16
2022-12-04T13:40:04.216Z,6.20
2022-12-04T13:41:04.263Z,6.24
2022-12-04T13:42:06.165Z,6.18
2022-12-04T13:43:04.221Z,6.16
2022-12-04T13:44:07.157Z,6.11
2022-12-04T13:45:04.201Z,6.06
2022-12-04T13:46:04.231Z,6.05
2022-12-04T13:47:04.223Z,6.07
2022-12-04T13:48:04.220Z,6.13
2022-12-04T13:49:04.295Z,6.20
2022-12-04T13:50:06.447Z,6.22
2022-12-04T13:51:04.198Z,6.25
2022-12-04T13:52:04.282Z,6.28
2022-12-04T13:53:04.236Z,6.29
2022-12-04T13:54:04.242Z,6.30
2022-12-04T13:55:04.277Z,6.34
2022-12-04T13:56:08.675Z,6.35
2022-12-04T13:57:04.249Z,6.38
2022-12-04T13:58:04.214Z,6.41
2022-12-04T13:59:04.290Z,6.45
2022-12-04T14:00:04.271Z,6.49
2022-12-04T14:01:04.340Z,6.53
2022-12-04T14:02:08.144Z,6.57
2022-12-04T14:03:04.309Z,6.59
2022-12-04T14:05:04.283Z,6.61
2022-12-04T14:06:04.293Z,6.62
2022-12-04T14:07:04.344Z,6.65
2022-12-04T14:08:07.597Z,6.66
2022-12-04T14:11:04.294Z,6.68
2022-12-04T14:13:04.332Z,6.65
2022-12-04T14:14:07.927Z,6.63
2022-12-04T14:15:04.340Z,6.62
2022-12-04T14:16:04.253Z,6.61
2022-12-04T14:17:04.476Z,6.59
2022-12-04T14:18:04.280Z,6.57
2022-12-04T14:19:06.446Z,6.53
2022-12-04T14:20:07.506Z,6.52
2022-12-04T14:21:04.313Z,6.50
2022-12-04T14:22:04.358Z,6.51
2022-12-04T14:24:04.316Z,6.53
2022-12-04T14:25:04.324Z,6.54
2022-12-04T14:26:04.296Z,6.55
2022-12-04T14:28:04.306Z,6.57
2022-12-04T14:29:04.311Z,6.56
2022-12-04T14:30:04.404Z,6.54
2022-12-04T14:31:04.437Z,6.50
2022-12-04T14:32:04.306Z,6.49
2022-12-04T14:33:04.337Z,6.48
2022-12-04T14:34:04.361Z,6.45
2022-12-04T14:35:04.445Z,6.42
2022-12-04T14:36:04.346Z,6.41
2022-12-04T14:37:04.365Z,6.42
2022-12-04T14:38:04.393Z,6.40
2022-12-04T14:39:04.362Z,6.41
2022-12-04T14:40:04.360Z,6.42
2022-12-04T14:41:04.428Z,6.39
2022-12-04T14:42:04.364Z,6.35
2022-12-04T14:43:04.400Z,6.33
2022-12-04T14:44:04.375Z,6.30
2022-12-04T14:46:04.478Z,6.33
2022-12-04T14:47:04.393Z,6.31
2022-12-04T14:48:04.440Z,6.33
2022-12-04T14:49:04.365Z,6.34
2022-12-04T14:51:04.369Z,6.32
2022-12-04T14:52:04.379Z,6.30
2022-12-04T14:53:04.447Z,6.28
2022-12-04T14:55:04.435Z,6.31
2022-12-04T14:57:04.358Z,6.33
2022-12-04T14:58:04.393Z,6.32
2022-12-04T14:59:04.415Z,6.34
2022-12-04T15:00:04.381Z,6.32
2022-12-04T15:01:04.400Z,6.26
2022-12-04T15:02:04.370Z,6.27
2022-12-04T15:04:04.470Z,6.25
2022-12-04T15:05:04.479Z,6.28
2022-12-04T15:06:04.426Z,6.34
2022-12-04T15:07:04.431Z,6.36
2022-12-04T15:08:04.571Z,6.33
2022-12-04T15:09:04.394Z,6.29
2022-12-04T15:10:04.530Z,6.30
2022-12-04T15:11:04.462Z,6.29
2022-12-04T15:12:04.408Z,6.31
2022-12-04T15:13:04.418Z,6.33